Time;durP1;ratioP1;P1;durP2;ratioP2;P2;SDS_P1;SDS_P2;PMS_P1;PMS_P2;Temp;Humidity;BMP_temperature;BMP_pressure;BME280_temperature;BME280_humidity;BME280_pressure;Samples;Min_cycle;Max_cycle;Signal;HPM_P1;HPM_P2
2023/10/05 00:04:29;;;;;;;7.30;3.20;;;;;;;;;;8216398;28;20029;-61
2023/10/05 00:08:29;;;;;;;9.68;3.42;;;;;;;;;;8219576;28;20137;-61
2023/10/05 00:12:30;;;;;;;8.13;3.60;;;;;;;;;;8216198;28;20082;-61
2023/10/05 00:16:36;;;;;;;7.45;3.00;;;;;;;;;;8218619;28;20508;-61
2023/10/05 00:20:41;;;;;;;6.32;2.97;;;;;;;;;;8218920;28;20025;-61
2023/10/05 00:24:43;;;;;;;13.27;3.72;;;;;;;;;;8221984;28;20026;-60
2023/10/05 00:28:55;;;;;;;9.57;3.60;;;;;;;;;;8220087;28;20033;-61
2023/10/05 00:32:57;;;;;;;11.13;3.83;;;;;;;;;;8217761;28;20132;-61
2023/10/05 00:36:57;;;;;;;11.48;3.10;;;;;;;;;;8217621;28;20026;-61
2023/10/05 00:41:03;;;;;;;11.68;3.40;;;;;;;;;;8219168;28;20034;-62
2023/10/05 00:45:05;;;;;;;9.77;3.40;;;;;;;;;;8218763;28;20040;-61
2023/10/05 00:49:14;;;;;;;12.10;4.00;;;;;;;;;;8220667;28;20046;-60
2023/10/05 00:53:15;;;;;;;11.57;3.78;;;;;;;;;;8216865;28;20025;-61
2023/10/05 00:57:19;;;;;;;11.57;3.83;;;;;;;;;;8224174;28;20148;-62
2023/10/05 01:01:32;;;;;;;10.32;3.35;;;;;;;;;;8216986;28;20050;-61
2023/10/05 01:05:37;;;;;;;12.80;3.58;;;;;;;;;;8214417;28;20033;-62
2023/10/05 01:09:55;;;;;;;10.65;3.78;;;;;;;;;;8218330;28;23349;-61
2023/10/05 01:14:01;;;;;;;11.70;3.83;;;;;;;;;;8220173;28;20036;-61
2023/10/05 01:18:02;;;;;;;8.98;3.30;;;;;;;;;;8224207;28;20069;-61
2023/10/05 01:22:06;;;;;;;8.63;3.28;;;;;;;;;;8226463;28;20037;-62
2023/10/05 01:26:10;;;;;;;9.90;3.75;;;;;;;;;;8225543;28;20021;-62
2023/10/05 01:30:14;;;;;;;10.82;4.00;;;;;;;;;;8223221;28;20502;-61
2023/10/05 01:34:14;;;;;;;10.30;4.13;;;;;;;;;;8222175;28;20022;-61
2023/10/05 01:38:14;;;;;;;11.87;3.53;;;;;;;;;;8224186;28;20232;-61
2023/10/05 01:42:16;;;;;;;8.10;3.88;;;;;;;;;;8223149;28;20285;-62
2023/10/05 01:46:16;;;;;;;9.13;3.63;;;;;;;;;;8220943;28;20129;-63
2023/10/05 01:50:22;;;;;;;8.10;3.63;;;;;;;;;;8223115;28;20092;-62
2023/10/05 01:54:26;;;;;;;13.40;3.92;;;;;;;;;;8222738;28;20026;-63
2023/10/05 01:58:27;;;;;;;11.35;3.72;;;;;;;;;;8225518;28;20495;-61
2023/10/05 02:02:27;;;;;;;9.65;3.80;;;;;;;;;;8218374;28;20065;-62
2023/10/05 02:06:31;;;;;;;10.43;3.63;;;;;;;;;;8223431;28;20116;-62
2023/10/05 02:10:40;;;;;;;10.55;3.92;;;;;;;;;;8224268;28;20022;-64
2023/10/05 02:14:41;;;;;;;10.15;3.70;;;;;;;;;;8224401;28;20026;-62
2023/10/05 02:18:41;;;;;;;9.93;3.90;;;;;;;;;;8223173;28;20049;-61
2023/10/05 02:22:47;;;;;;;12.13;4.07;;;;;;;;;;8221496;28;20014;-62
2023/10/05 02:31:00;;;;;;;10.23;3.53;;;;;;;;;;8219431;28;20038;-62
2023/10/05 02:35:17;;;;;;;10.63;3.80;;;;;;;;;;8221962;28;20072;-61
2023/10/05 02:39:21;;;;;;;9.32;3.65;;;;;;;;;;8222120;28;20416;-61
2023/10/05 02:43:27;;;;;;;18.13;4.15;;;;;;;;;;8224271;28;20026;-61
2023/10/05 02:47:27;;;;;;;14.10;4.00;;;;;;;;;;8219961;28;20026;-61
2023/10/05 02:51:27;;;;;;;9.45;3.60;;;;;;;;;;8223803;28;20033;-61
2023/10/05 02:55:32;;;;;;;10.77;4.07;;;;;;;;;;8223057;28;20034;-61
2023/10/05 02:59:33;;;;;;;11.50;3.70;;;;;;;;;;8220969;28;20272;-61
2023/10/05 03:03:34;;;;;;;9.15;3.70;;;;;;;;;;8220511;28;20375;-61
2023/10/05 03:07:34;;;;;;;10.68;3.78;;;;;;;;;;8219623;28;20022;-62
2023/10/05 03:11:36;;;;;;;11.75;3.53;;;;;;;;;;8220353;28;20029;-62
2023/10/05 03:15:37;;;;;;;10.13;3.95;;;;;;;;;;8224264;28;22804;-61
2023/10/05 03:19:39;;;;;;;10.45;3.70;;;;;;;;;;8221512;28;20025;-61
2023/10/05 03:23:41;;;;;;;7.90;3.72;;;;;;;;;;8220412;28;20845;-61
2023/10/05 03:27:41;;;;;;;9.10;3.67;;;;;;;;;;8221076;28;20049;-61
2023/10/05 03:31:55;;;;;;;11.20;3.72;;;;;;;;;;8218622;28;20030;-61
2023/10/05 03:35:58;;;;;;;13.65;4.25;;;;;;;;;;8221357;28;20026;-61
2023/10/05 03:44:07;;;;;;;15.45;3.65;;;;;;;;;;8219534;28;20277;-62
2023/10/05 03:48:07;;;;;;;9.18;3.45;;;;;;;;;;8220955;28;20034;-61
2023/10/05 03:52:07;;;;;;;11.70;3.73;;;;;;;;;;8223071;28;20045;-62
2023/10/05 03:56:12;;;;;;;10.48;3.67;;;;;;;;;;8219316;28;20851;-61
2023/10/05 04:00:23;;;;;;;10.77;3.85;;;;;;;;;;8220710;28;21122;-61
2023/10/05 04:04:25;;;;;;;10.27;3.45;;;;;;;;;;8215870;28;20026;-62
2023/10/05 04:08:27;;;;;;;12.60;3.80;;;;;;;;;;8225337;28;20018;-61
2023/10/05 04:12:31;;;;;;;6.20;3.35;;;;;;;;;;8219905;28;20133;-61
2023/10/05 04:16:33;;;;;;;8.27;3.13;;;;;;;;;;8216245;28;20037;-62
2023/10/05 04:20:33;;;;;;;6.78;3.17;;;;;;;;;;8221777;28;20142;-61
2023/10/05 04:24:34;;;;;;;10.80;3.78;;;;;;;;;;8219396;28;20054;-61
2023/10/05 04:28:35;;;;;;;10.10;3.53;;;;;;;;;;8219569;28;20030;-62
2023/10/05 04:32:35;;;;;;;10.63;3.90;;;;;;;;;;8218030;28;20374;-62
2023/10/05 04:36:36;;;;;;;9.05;3.60;;;;;;;;;;8222693;28;20034;-62
2023/10/05 04:40:38;;;;;;;10.88;4.05;;;;;;;;;;8220027;28;20349;-61
2023/10/05 04:44:40;;;;;;;14.25;3.80;;;;;;;;;;8220468;28;20022;-62
2023/10/05 04:48:48;;;;;;;10.95;3.95;;;;;;;;;;8212815;28;20030;-61
2023/10/05 04:52:51;;;;;;;7.57;3.08;;;;;;;;;;8223972;28;20022;-61
2023/10/05 04:57:02;;;;;;;12.52;3.80;;;;;;;;;;8224419;28;20824;-62
2023/10/05 05:05:33;;;;;;;9.43;3.13;;;;;;;;;;8221581;28;20037;-62
2023/10/05 05:09:36;;;;;;;8.10;3.38;;;;;;;;;;8219400;28;20813;-61
2023/10/05 05:13:36;;;;;;;9.30;3.35;;;;;;;;;;8227047;28;20026;-61
2023/10/05 05:17:39;;;;;;;10.13;3.20;;;;;;;;;;8217722;28;23081;-61
2023/10/05 05:21:39;;;;;;;11.30;3.70;;;;;;;;;;8227719;28;20053;-62
2023/10/05 05:25:40;;;;;;;9.23;3.10;;;;;;;;;;8225690;28;20041;-62
2023/10/05 05:29:40;;;;;;;17.73;4.63;;;;;;;;;;8222794;28;20026;-61
2023/10/05 05:33:41;;;;;;;25.15;7.10;;;;;;;;;;8222188;28;20030;-62
2023/10/05 05:37:42;;;;;;;23.98;7.30;;;;;;;;;;8227476;28;20026;-62
2023/10/05 05:41:42;;;;;;;24.10;5.95;;;;;;;;;;8222792;28;20811;-62
2023/10/05 05:45:43;;;;;;;12.33;5.10;;;;;;;;;;8223187;28;20054;-61
2023/10/05 05:49:46;;;;;;;22.63;4.95;;;;;;;;;;8221222;28;20105;-61
2023/10/05 05:53:47;;;;;;;18.60;5.43;;;;;;;;;;8225675;28;20076;-61
2023/10/05 05:57:47;;;;;;;17.63;4.95;;;;;;;;;;8227104;28;20014;-62
2023/10/05 06:01:50;;;;;;;31.08;7.47;;;;;;;;;;8221121;28;20724;-62
2023/10/05 06:05:50;;;;;;;23.63;7.13;;;;;;;;;;8222918;28;20021;-63
2023/10/05 06:09:51;;;;;;;26.15;7.35;;;;;;;;;;8225064;28;20751;-61
2023/10/05 06:13:51;;;;;;;21.30;7.13;;;;;;;;;;8226232;28;20049;-62
2023/10/05 06:17:51;;;;;;;24.83;7.22;;;;;;;;;;8225142;28;20166;-62
2023/10/05 06:21:51;;;;;;;13.35;5.43;;;;;;;;;;8224491;28;20096;-62
2023/10/05 06:25:53;;;;;;;12.75;4.53;;;;;;;;;;8225678;28;20029;-61
2023/10/05 06:29:53;;;;;;;14.45;4.55;;;;;;;;;;8222305;28;20107;-61
2023/10/05 06:33:53;;;;;;;11.05;4.25;;;;;;;;;;8222355;28;20475;-62
2023/10/05 06:37:55;;;;;;;12.70;4.03;;;;;;;;;;8224472;28;20027;-61
2023/10/05 06:41:57;;;;;;;15.75;4.10;;;;;;;;;;8223716;28;20029;-62
2023/10/05 06:46:08;;;;;;;10.18;3.72;;;;;;;;;;8219770;28;20034;-62
2023/10/05 06:50:09;;;;;;;13.20;3.50;;;;;;;;;;8220900;28;20030;-62
2023/10/05 06:54:09;;;;;;;10.52;3.63;;;;;;;;;;8222864;28;20032;-62
2023/10/05 06:58:10;;;;;;;9.57;3.95;;;;;;;;;;8220584;28;20056;-62
2023/10/05 07:02:10;;;;;;;10.07;3.60;;;;;;;;;;8229667;28;20380;-61
2023/10/05 07:06:10;;;;;;;8.23;3.22;;;;;;;;;;8218602;28;20786;-61
2023/10/05 07:10:13;;;;;;;8.18;3.22;;;;;;;;;;8223511;28;20025;-62
2023/10/05 07:14:15;;;;;;;9.73;3.43;;;;;;;;;;8223171;28;20041;-61
2023/10/05 07:18:18;;;;;;;9.18;3.33;;;;;;;;;;8223138;28;20125;-62
2023/10/05 07:22:18;;;;;;;7.25;3.13;;;;;;;;;;8222526;28;21187;-62
2023/10/05 07:26:18;;;;;;;6.30;3.20;;;;;;;;;;8219094;28;20029;-63
2023/10/05 07:30:19;;;;;;;11.30;3.70;;;;;;;;;;8221350;28;20702;-63
2023/10/05 07:34:20;;;;;;;11.95;4.10;;;;;;;;;;8221884;28;20038;-62
2023/10/05 07:38:20;;;;;;;12.18;3.90;;;;;;;;;;8220257;28;20034;-62
2023/10/05 07:42:20;;;;;;;14.43;4.10;;;;;;;;;;8221110;28;20052;-61
2023/10/05 07:46:21;;;;;;;10.25;4.00;;;;;;;;;;8220199;28;20081;-63
2023/10/05 07:50:23;;;;;;;12.80;4.05;;;;;;;;;;8222119;28;20069;-63
2023/10/05 07:54:23;;;;;;;6.90;3.53;;;;;;;;;;8222019;28;20022;-62
2023/10/05 07:58:23;;;;;;;9.80;3.53;;;;;;;;;;8218051;28;20810;-62
2023/10/05 08:02:24;;;;;;;9.07;3.40;;;;;;;;;;8219231;28;20080;-62
2023/10/05 08:06:25;;;;;;;9.70;3.13;;;;;;;;;;8221596;28;20038;-63
2023/10/05 08:10:25;;;;;;;7.43;3.35;;;;;;;;;;8218565;28;20045;-62
2023/10/05 08:14:26;;;;;;;10.82;3.70;;;;;;;;;;8222543;28;20033;-62
2023/10/05 08:18:26;;;;;;;9.30;3.90;;;;;;;;;;8217211;28;20554;-63
2023/10/05 08:22:26;;;;;;;9.65;3.53;;;;;;;;;;8220656;28;20040;-62
2023/10/05 08:26:28;;;;;;;9.38;3.50;;;;;;;;;;8220722;28;20137;-62
2023/10/05 08:30:33;;;;;;;7.87;2.93;;;;;;;;;;8215019;28;20119;-62
2023/10/05 08:34:33;;;;;;;9.15;3.55;;;;;;;;;;8218424;28;20286;-61
2023/10/05 08:38:34;;;;;;;5.47;2.78;;;;;;;;;;8221407;28;20548;-62
2023/10/05 08:42:34;;;;;;;6.10;2.67;;;;;;;;;;8216945;28;20034;-61
2023/10/05 08:46:43;;;;;;;8.10;2.55;;;;;;;;;;8217976;28;21393;-62
2023/10/05 08:50:46;;;;;;;8.35;2.83;;;;;;;;;;8221862;28;20030;-61
2023/10/05 08:54:47;;;;;;;6.68;3.08;;;;;;;;;;8218454;28;20774;-62
2023/10/05 08:58:48;;;;;;;8.88;3.22;;;;;;;;;;8220651;28;20730;-63
2023/10/05 09:02:48;;;;;;;9.90;3.25;;;;;;;;;;8219559;28;20046;-62
2023/10/05 09:07:08;;;;;;;7.55;2.72;;;;;;;;;;8218071;28;20433;-62
2023/10/05 09:11:09;;;;;;;9.10;2.80;;;;;;;;;;8226098;28;20030;-62
2023/10/05 09:19:26;;;;;;;8.63;2.47;;;;;;;;;;8218263;28;20034;-62
2023/10/05 09:23:30;;;;;;;7.60;2.45;;;;;;;;;;8219734;28;20046;-62
2023/10/05 09:27:47;;;;;;;7.90;2.67;;;;;;;;;;8218967;28;20076;-61
2023/10/05 09:31:54;;;;;;;7.28;2.47;;;;;;;;;;8219420;28;20466;-62
2023/10/05 09:36:06;;;;;;;7.15;2.80;;;;;;;;;;8224145;28;20057;-61
2023/10/05 09:40:15;;;;;;;7.18;2.22;;;;;;;;;;8225946;28;20023;-61
2023/10/05 09:44:16;;;;;;;7.25;2.42;;;;;;;;;;8226335;28;20753;-62
2023/10/05 09:48:19;;;;;;;7.25;2.40;;;;;;;;;;8223104;28;20140;-61
2023/10/05 09:52:21;;;;;;;7.32;2.40;;;;;;;;;;8226029;28;20037;-62
2023/10/05 09:56:23;;;;;;;6.03;2.30;;;;;;;;;;8223710;28;20030;-62
2023/10/05 10:04:36;;;;;;;7.53;2.65;;;;;;;;;;8221739;28;20607;-61
2023/10/05 10:08:50;;;;;;;7.50;2.63;;;;;;;;;;8219695;28;20029;-62
2023/10/05 10:12:52;;;;;;;5.07;2.38;;;;;;;;;;8218696;28;20754;-62
2023/10/05 10:17:00;;;;;;;6.72;2.22;;;;;;;;;;8218756;28;20030;-61
2023/10/05 10:21:08;;;;;;;5.82;2.20;;;;;;;;;;8219708;28;20025;-60
2023/10/05 10:25:26;;;;;;;5.13;2.15;;;;;;;;;;8219494;28;20052;-61
2023/10/05 10:29:51;;;;;;;5.15;2.55;;;;;;;;;;8216793;28;20032;-61
2023/10/05 10:33:51;;;;;;;9.80;2.30;;;;;;;;;;8211061;28;20034;-62
2023/10/05 10:37:54;;;;;;;5.25;2.33;;;;;;;;;;8220101;28;20014;-62
2023/10/05 10:42:00;;;;;;;3.83;2.05;;;;;;;;;;8219020;28;20068;-61
2023/10/05 10:46:06;;;;;;;5.63;2.00;;;;;;;;;;8217864;28;20034;-61
2023/10/05 10:50:16;;;;;;;5.65;1.80;;;;;;;;;;8216664;28;20084;-62
2023/10/05 10:54:18;;;;;;;6.13;1.95;;;;;;;;;;8216425;28;20038;-61
2023/10/05 10:58:24;;;;;;;4.68;2.00;;;;;;;;;;8219922;28;20510;-62
2023/10/05 11:02:24;;;;;;;5.25;1.98;;;;;;;;;;8217433;28;20346;-61
2023/10/05 11:06:26;;;;;;;6.18;2.05;;;;;;;;;;8220668;28;20030;-61
2023/10/05 11:10:30;;;;;;;5.72;2.00;;;;;;;;;;8209640;28;20493;-61
2023/10/05 11:14:32;;;;;;;6.25;2.03;;;;;;;;;;8222015;28;20038;-61
2023/10/05 11:18:39;;;;;;;5.07;1.98;;;;;;;;;;8222698;28;20038;-62
2023/10/05 11:22:42;;;;;;;7.47;2.00;;;;;;;;;;8220050;28;20044;-61
2023/10/05 11:30:56;;;;;;;7.30;1.77;;;;;;;;;;8221240;28;20068;-62
2023/10/05 11:35:04;;;;;;;6.18;1.95;;;;;;;;;;8223950;28;20022;-62
2023/10/05 11:39:06;;;;;;;5.72;2.10;;;;;;;;;;8220644;28;20022;-61
2023/10/05 11:43:13;;;;;;;5.65;1.90;;;;;;;;;;8219075;28;20026;-62
2023/10/05 11:47:22;;;;;;;5.88;2.50;;;;;;;;;;8220036;28;20475;-62
2023/10/05 11:51:27;;;;;;;6.90;2.05;;;;;;;;;;8222406;28;20221;-61
2023/10/05 11:55:27;;;;;;;6.75;1.85;;;;;;;;;;8221468;28;20066;-62
2023/10/05 11:59:28;;;;;;;9.35;1.90;;;;;;;;;;8219026;28;20089;-63
2023/10/05 12:03:30;;;;;;;5.25;1.85;;;;;;;;;;8216907;28;20046;-62
2023/10/05 12:07:30;;;;;;;7.20;2.28;;;;;;;;;;8220748;28;20034;-63
2023/10/05 12:11:30;;;;;;;6.33;1.77;;;;;;;;;;8217815;28;20125;-62
2023/10/05 12:15:32;;;;;;;4.18;1.80;;;;;;;;;;8215816;28;20082;-62
2023/10/05 12:19:33;;;;;;;9.23;1.88;;;;;;;;;;8217744;28;20108;-61
2023/10/05 12:23:33;;;;;;;8.80;1.98;;;;;;;;;;8217978;28;20038;-63
2023/10/05 12:27:35;;;;;;;4.88;2.00;;;;;;;;;;8218937;28;22181;-61
2023/10/05 12:31:38;;;;;;;7.53;1.85;;;;;;;;;;8216420;28;20042;-62
2023/10/05 12:35:38;;;;;;;4.38;1.58;;;;;;;;;;8220398;28;22602;-63
2023/10/05 12:39:38;;;;;;;6.10;2.15;;;;;;;;;;8219310;28;20057;-62
2023/10/05 12:43:39;;;;;;;4.13;1.63;;;;;;;;;;8220280;28;20154;-62
2023/10/05 12:47:40;;;;;;;9.50;1.90;;;;;;;;;;8213865;28;20046;-61
2023/10/05 12:51:41;;;;;;;6.60;1.65;;;;;;;;;;8219027;28;20022;-63
2023/10/05 12:55:41;;;;;;;4.63;1.50;;;;;;;;;;8219101;28;20109;-62
2023/10/05 12:59:42;;;;;;;8.68;2.17;;;;;;;;;;8215553;28;20113;-62
2023/10/05 13:03:44;;;;;;;5.25;1.67;;;;;;;;;;8217052;28;20074;-62
2023/10/05 13:07:44;;;;;;;6.53;1.70;;;;;;;;;;8213095;28;20118;-61
2023/10/05 13:11:45;;;;;;;4.63;1.77;;;;;;;;;;8222360;28;20057;-62
2023/10/05 13:15:46;;;;;;;4.50;1.73;;;;;;;;;;8216692;28;20038;-61
2023/10/05 13:19:46;;;;;;;5.75;1.85;;;;;;;;;;8188683;28;20327;-62
2023/10/05 13:23:47;;;;;;;7.40;2.00;;;;;;;;;;8191058;28;20174;-62
2023/10/05 13:27:48;;;;;;;5.43;2.00;;;;;;;;;;8195240;28;20061;-62
2023/10/05 13:31:48;;;;;;;5.28;1.70;;;;;;;;;;8187135;28;20030;-61
2023/10/05 13:35:51;;;;;;;7.43;2.05;;;;;;;;;;8191062;28;20030;-63
2023/10/05 13:39:53;;;;;;;4.22;2.05;;;;;;;;;;8189924;28;20126;-62
2023/10/05 13:43:53;;;;;;;7.75;2.08;;;;;;;;;;8194708;28;20049;-62
2023/10/05 13:47:53;;;;;;;4.78;1.70;;;;;;;;;;8199477;28;20035;-62
2023/10/05 13:51:53;;;;;;;4.40;1.90;;;;;;;;;;8189542;28;20034;-62
2023/10/05 13:55:54;;;;;;;6.73;2.13;;;;;;;;;;8191514;28;20030;-62
2023/10/05 13:59:54;;;;;;;6.90;1.63;;;;;;;;;;8192718;28;20034;-62
2023/10/05 14:03:54;;;;;;;5.65;1.70;;;;;;;;;;8189019;28;20049;-62
2023/10/05 14:07:58;;;;;;;5.22;1.77;;;;;;;;;;8187758;28;20031;-62
2023/10/05 14:11:59;;;;;;;;;;;;;;;;;;8188275;28;20090;-62
2023/10/05 14:16:00;;;;;;;8.82;1.85;;;;;;;;;;8198993;28;20464;-62
2023/10/05 14:20:01;;;;;;;5.00;1.88;;;;;;;;;;8221821;28;20033;-62
2023/10/05 14:24:01;;;;;;;6.68;1.95;;;;;;;;;;8213708;28;20874;-62
2023/10/05 14:28:03;;;;;;;6.00;1.83;;;;;;;;;;8220010;28;20137;-62
2023/10/05 14:32:04;;;;;;;7.53;1.95;;;;;;;;;;8213974;28;20042;-63
2023/10/05 14:36:08;;;;;;;6.43;1.98;;;;;;;;;;8215543;28;20037;-61
2023/10/05 14:40:15;;;;;;;9.27;2.00;;;;;;;;;;8215938;28;20045;-61
2023/10/05 14:44:15;;;;;;;4.22;2.10;;;;;;;;;;8217206;28;20037;-62
2023/10/05 14:48:15;;;;;;;7.95;2.17;;;;;;;;;;8215197;28;20038;-62
2023/10/05 14:52:17;;;;;;;4.40;1.80;;;;;;;;;;8217096;28;20030;-61
2023/10/05 14:56:17;;;;;;;6.38;2.00;;;;;;;;;;8219882;28;20026;-61
2023/10/05 15:00:18;;;;;;;4.80;1.80;;;;;;;;;;8216447;28;20331;-63
2023/10/05 15:04:19;;;;;;;6.97;1.90;;;;;;;;;;8219686;28;20916;-62
2023/10/05 15:08:19;;;;;;;4.60;1.98;;;;;;;;;;8218648;28;20272;-62
2023/10/05 15:12:20;;;;;;;6.87;2.00;;;;;;;;;;8222639;28;20112;-62
2023/10/05 15:16:20;;;;;;;4.93;2.20;;;;;;;;;;8214079;28;20038;-61
2023/10/05 15:20:23;;;;;;;6.78;2.60;;;;;;;;;;8223475;28;20704;-61
2023/10/05 15:24:25;;;;;;;5.17;2.43;;;;;;;;;;8222521;28;20619;-62
2023/10/05 15:28:25;;;;;;;5.20;2.60;;;;;;;;;;8223235;28;20268;-61
2023/10/05 15:32:26;;;;;;;6.00;2.43;;;;;;;;;;8218067;28;20034;-62
2023/10/05 15:36:27;;;;;;;4.95;2.40;;;;;;;;;;8219945;28;20026;-61
2023/10/05 15:40:31;;;;;;;5.55;2.30;;;;;;;;;;8221441;28;20141;-62
2023/10/05 15:44:31;;;;;;;5.53;2.80;;;;;;;;;;8219741;28;20061;-62
2023/10/05 15:48:31;;;;;;;4.13;2.58;;;;;;;;;;8222046;28;20030;-62
2023/10/05 15:52:32;;;;;;;6.67;2.57;;;;;;;;;;8217667;28;20827;-62
2023/10/05 15:56:33;;;;;;;6.03;2.67;;;;;;;;;;8220256;28;20062;-62
2023/10/05 16:00:34;;;;;;;4.90;2.57;;;;;;;;;;8219741;28;20148;-61
2023/10/05 16:04:34;;;;;;;7.65;2.53;;;;;;;;;;8222885;28;20304;-61
2023/10/05 16:08:35;;;;;;;4.78;2.15;;;;;;;;;;8219953;28;20038;-61
2023/10/05 16:12:36;;;;;;;4.65;2.63;;;;;;;;;;8214449;28;20033;-61
2023/10/05 16:16:37;;;;;;;5.75;2.55;;;;;;;;;;8212744;28;20187;-61
2023/10/05 16:20:37;;;;;;;6.88;2.42;;;;;;;;;;8217764;28;20026;-61
2023/10/05 16:24:37;;;;;;;4.50;2.17;;;;;;;;;;8219140;28;20185;-61
2023/10/05 16:28:38;;;;;;;6.35;2.50;;;;;;;;;;8222688;28;20026;-61
2023/10/05 16:32:38;;;;;;;6.18;2.90;;;;;;;;;;8219302;28;22420;-62
2023/10/05 16:36:39;;;;;;;9.70;2.88;;;;;;;;;;8222141;28;20045;-61
2023/10/05 16:40:39;;;;;;;6.95;3.00;;;;;;;;;;8218433;28;20036;-62
2023/10/05 16:44:41;;;;;;;6.20;3.30;;;;;;;;;;8219058;28;20026;-62
2023/10/05 16:48:41;;;;;;;7.03;2.97;;;;;;;;;;8219459;28;20066;-62
2023/10/05 16:52:43;;;;;;;6.20;3.10;;;;;;;;;;8224425;28;20700;-62
2023/10/05 16:56:44;;;;;;;6.07;3.03;;;;;;;;;;8222740;28;20041;-62
2023/10/05 17:00:46;;;;;;;6.55;2.88;;;;;;;;;;8217973;28;20034;-60
2023/10/05 17:04:46;;;;;;;5.53;2.83;;;;;;;;;;8218675;28;20040;-62
2023/10/05 17:08:48;;;;;;;5.63;2.50;;;;;;;;;;8221582;28;20025;-61
2023/10/05 17:12:48;;;;;;;6.35;2.55;;;;;;;;;;8227626;28;20045;-61
2023/10/05 17:16:48;;;;;;;5.37;2.60;;;;;;;;;;8218934;28;20152;-62
2023/10/05 17:20:49;;;;;;;7.63;2.72;;;;;;;;;;8218550;28;20293;-62
2023/10/05 17:24:53;;;;;;;8.43;2.53;;;;;;;;;;8220961;28;20018;-61
2023/10/05 17:28:53;;;;;;;6.47;2.60;;;;;;;;;;8221073;28;20323;-61
2023/10/05 17:32:53;;;;;;;6.23;2.30;;;;;;;;;;8217392;28;20034;-61
2023/10/05 17:36:53;;;;;;;7.85;3.30;;;;;;;;;;8222025;28;20033;-61
2023/10/05 17:40:57;;;;;;;8.60;3.13;;;;;;;;;;8218352;28;20034;-61
2023/10/05 17:44:57;;;;;;;7.88;3.47;;;;;;;;;;8222651;28;20529;-61
2023/10/05 17:48:57;;;;;;;7.15;2.63;;;;;;;;;;8218137;28;20031;-61
2023/10/05 17:52:59;;;;;;;4.05;2.17;;;;;;;;;;8219654;28;20038;-62
2023/10/05 17:56:59;;;;;;;7.55;2.80;;;;;;;;;;8218448;28;20033;-62
2023/10/05 18:01:01;;;;;;;5.70;2.60;;;;;;;;;;8223073;28;20042;-61
2023/10/05 18:05:05;;;;;;;6.68;3.78;;;;;;;;;;8224321;28;20040;-62
2023/10/05 18:09:05;;;;;;;11.38;6.57;;;;;;;;;;8223444;28;20121;-62
2023/10/05 18:13:07;;;;;;;13.40;7.40;;;;;;;;;;8224041;28;20076;-61
2023/10/05 18:17:08;;;;;;;10.55;5.45;;;;;;;;;;8222414;28;20906;-61
2023/10/05 18:21:08;;;;;;;7.10;3.50;;;;;;;;;;8227038;28;20205;-61
2023/10/05 18:25:09;;;;;;;6.68;3.42;;;;;;;;;;8222174;28;20057;-62
2023/10/05 18:29:12;;;;;;;4.90;2.67;;;;;;;;;;8219502;28;20120;-62
2023/10/05 18:33:13;;;;;;;7.13;2.67;;;;;;;;;;8222920;28;20034;-61
2023/10/05 18:37:13;;;;;;;3.97;2.33;;;;;;;;;;8218716;28;20099;-61
2023/10/05 18:41:13;;;;;;;5.93;1.95;;;;;;;;;;8220382;28;20049;-62
2023/10/05 18:45:14;;;;;;;5.18;2.03;;;;;;;;;;8225090;28;20128;-62
2023/10/05 18:49:15;;;;;;;9.80;2.22;;;;;;;;;;8222054;28;20075;-63
2023/10/05 18:53:16;;;;;;;4.45;2.03;;;;;;;;;;8229078;28;20030;-62
2023/10/05 18:57:16;;;;;;;5.88;1.90;;;;;;;;;;8223400;28;20045;-61
2023/10/05 19:01:20;;;;;;;8.70;2.00;;;;;;;;;;8222772;28;20041;-62
2023/10/05 19:05:20;;;;;;;5.25;1.92;;;;;;;;;;8226807;28;20826;-62
2023/10/05 19:09:21;;;;;;;4.18;1.80;;;;;;;;;;8220889;28;20423;-62
2023/10/05 19:13:21;;;;;;;5.73;2.03;;;;;;;;;;8225163;28;20038;-63
2023/10/05 19:17:23;;;;;;;5.50;1.70;;;;;;;;;;8218071;28;20428;-62
2023/10/05 19:21:24;;;;;;;4.28;1.95;;;;;;;;;;8219829;28;20136;-62
2023/10/05 19:25:25;;;;;;;3.88;1.63;;;;;;;;;;8219701;28;20026;-62
2023/10/05 19:29:26;;;;;;;6.88;2.05;;;;;;;;;;8219280;28;20026;-62
2023/10/05 19:33:27;;;;;;;5.47;1.75;;;;;;;;;;8216230;28;20156;-63
2023/10/05 19:37:27;;;;;;;5.22;1.90;;;;;;;;;;8215660;28;20969;-62
2023/10/05 19:41:27;;;;;;;4.05;1.70;;;;;;;;;;8217184;28;20033;-62
2023/10/05 19:45:28;;;;;;;4.85;1.90;;;;;;;;;;8216409;28;20065;-62
2023/10/05 19:49:28;;;;;;;6.13;1.80;;;;;;;;;;8216228;28;20050;-63
2023/10/05 19:53:29;;;;;;;5.87;1.70;;;;;;;;;;8213924;28;20273;-62
2023/10/05 19:57:32;;;;;;;4.82;1.70;;;;;;;;;;8216952;28;20041;-62
2023/10/05 20:01:32;;;;;;;6.28;2.00;;;;;;;;;;8215750;28;20132;-62
2023/10/05 20:05:36;;;;;;;6.90;1.57;;;;;;;;;;8218547;28;20099;-62
2023/10/05 20:09:38;;;;;;;4.70;1.88;;;;;;;;;;8213430;28;23229;-62
2023/10/05 20:13:39;;;;;;;4.93;1.90;;;;;;;;;;8214628;28;20424;-62
2023/10/05 20:17:39;;;;;;;6.07;1.95;;;;;;;;;;8214128;28;20304;-61
2023/10/05 20:21:40;;;;;;;3.75;1.80;;;;;;;;;;8214489;28;20034;-62
2023/10/05 20:25:40;;;;;;;4.40;1.90;;;;;;;;;;8215088;28;20295;-60
2023/10/05 20:29:40;;;;;;;3.63;1.50;;;;;;;;;;8214706;28;20034;-61
2023/10/05 20:33:42;;;;;;;5.75;1.63;;;;;;;;;;8211640;28;20317;-61
2023/10/05 20:37:42;;;;;;;3.50;1.70;;;;;;;;;;8217248;28;20055;-61
2023/10/05 20:41:42;;;;;;;4.10;1.70;;;;;;;;;;8216243;28;20025;-60
2023/10/05 20:45:42;;;;;;;3.72;1.85;;;;;;;;;;8217796;28;20037;-61
2023/10/05 20:49:43;;;;;;;4.20;1.88;;;;;;;;;;8217649;28;20033;-61
2023/10/05 20:53:43;;;;;;;5.20;1.67;;;;;;;;;;8222417;28;20271;-61
2023/10/05 20:57:43;;;;;;;6.95;2.13;;;;;;;;;;8218665;28;20498;-62
2023/10/05 21:01:43;;;;;;;3.73;1.80;;;;;;;;;;8215631;28;20863;-62
2023/10/05 21:05:44;;;;;;;5.72;1.83;;;;;;;;;;8212753;28;20483;-61
2023/10/05 21:09:44;;;;;;;3.20;1.65;;;;;;;;;;8218044;28;20017;-61
2023/10/05 21:13:45;;;;;;;5.05;2.00;;;;;;;;;;8212397;28;20040;-62
2023/10/05 21:17:45;;;;;;;9.60;2.03;;;;;;;;;;8215394;28;20034;-61
2023/10/05 21:21:47;;;;;;;6.45;3.40;;;;;;;;;;8218086;28;20034;-62
2023/10/05 21:25:49;;;;;;;8.10;4.25;;;;;;;;;;8217802;28;20022;-62
2023/10/05 21:29:49;;;;;;;4.93;2.17;;;;;;;;;;8216830;28;20023;-61
2023/10/05 21:33:49;;;;;;;4.85;1.80;;;;;;;;;;8221086;28;20145;-62
2023/10/05 21:37:50;;;;;;;6.85;1.80;;;;;;;;;;8220842;28;20124;-62
2023/10/05 21:41:50;;;;;;;3.85;1.92;;;;;;;;;;8221411;28;20026;-61
2023/10/05 21:45:50;;;;;;;5.70;1.50;;;;;;;;;;8221128;28;20030;-62
2023/10/05 21:49:50;;;;;;;8.10;2.30;;;;;;;;;;8217149;28;20089;-61
2023/10/05 21:53:50;;;;;;;3.03;2.00;;;;;;;;;;8223926;28;20057;-61
2023/10/05 21:57:51;;;;;;;5.63;2.35;;;;;;;;;;8226151;28;20061;-62
2023/10/05 22:01:51;;;;;;;4.53;1.83;;;;;;;;;;8215570;28;20041;-61
2023/10/05 22:05:51;;;;;;;5.90;1.98;;;;;;;;;;8223637;28;20024;-61
2023/10/05 22:09:52;;;;;;;3.42;1.77;;;;;;;;;;8227352;28;20026;-62
2023/10/05 22:13:52;;;;;;;10.50;2.23;;;;;;;;;;8216850;28;20053;-61
2023/10/05 22:17:53;;;;;;;3.33;1.80;;;;;;;;;;8220428;28;20042;-62
2023/10/05 22:21:53;;;;;;;5.53;2.60;;;;;;;;;;8220090;28;20481;-62
2023/10/05 22:25:55;;;;;;;3.25;1.88;;;;;;;;;;8227406;28;20018;-61
2023/10/05 22:29:55;;;;;;;5.38;1.95;;;;;;;;;;8219759;28;20469;-61
2023/10/05 22:33:55;;;;;;;5.88;1.98;;;;;;;;;;8219786;28;20042;-61
2023/10/05 22:37:55;;;;;;;2.78;1.55;;;;;;;;;;8219811;28;20126;-61
2023/10/05 22:41:56;;;;;;;2.60;1.70;;;;;;;;;;8219827;28;20584;-61
2023/10/05 22:45:56;;;;;;;3.72;1.65;;;;;;;;;;8221821;28;20038;-61
2023/10/05 22:49:59;;;;;;;3.08;1.45;;;;;;;;;;8224365;28;20025;-62
2023/10/05 22:54:00;;;;;;;4.20;1.63;;;;;;;;;;8224378;28;20055;-61
2023/10/05 22:58:00;;;;;;;4.28;1.70;;;;;;;;;;8222676;28;20092;-62
2023/10/05 23:02:03;;;;;;;5.13;1.80;;;;;;;;;;8218227;28;20049;-62
2023/10/05 23:06:03;;;;;;;3.28;1.63;;;;;;;;;;8217277;28;20025;-62
2023/10/05 23:10:05;;;;;;;4.78;1.60;;;;;;;;;;8215713;28;20040;-62
2023/10/05 23:14:06;;;;;;;3.20;1.60;;;;;;;;;;8215724;28;20148;-62
2023/10/05 23:18:06;;;;;;;2.50;1.60;;;;;;;;;;8213958;28;20133;-61
2023/10/05 23:22:06;;;;;;;2.37;1.50;;;;;;;;;;8214785;28;20030;-62
2023/10/05 23:26:07;;;;;;;3.03;1.63;;;;;;;;;;8216479;28;20253;-61
2023/10/05 23:30:07;;;;;;;10.95;5.05;;;;;;;;;;8215288;28;20460;-62
2023/10/05 23:34:12;;;;;;;20.05;9.00;;;;;;;;;;8218033;28;20952;-61
2023/10/05 23:38:12;;;;;;;18.65;7.72;;;;;;;;;;8221122;28;20654;-61
2023/10/05 23:42:17;;;;;;;20.88;8.93;;;;;;;;;;8218980;28;20030;-62
2023/10/05 23:46:17;;;;;;;24.27;9.73;;;;;;;;;;8218700;28;20466;-62
2023/10/05 23:50:36;;;;;;;29.70;10.52;;;;;;;;;;8217160;28;20133;-62
2023/10/05 23:54:36;;;;;;;43.33;15.07;;;;;;;;;;8220720;28;20236;-62
2023/10/05 23:58:37;;;;;;;41.27;12.43;;;;;;;;;;8218341;28;20064;-62
